Time;durP1;ratioP1;P1;durP2;ratioP2;P2;SDS_P1;SDS_P2;PMS_P1;PMS_P2;Temp;Humidity;BMP_temperature;BMP_pressure;BME280_temperature;BME280_humidity;BME280_pressure;Samples;Min_cycle;Max_cycle;Signal;HPM_P1;HPM_P2
2022/06/19 00:01:21;;;;;;;;;;;23.90;68.70;;;;;;6159155;23;19924;-84
2022/06/19 00:03:50;;;;;;;;;;;23.90;68.80;;;;;;6184985;23;19946;-84
2022/06/19 00:06:17;;;;;;;;;;;23.90;69.10;;;;;;6160063;23;19967;-84
2022/06/19 00:08:45;;;;;;;;;;;23.80;69.50;;;;;;6159938;23;19943;-84
2022/06/19 00:11:14;;;;;;;;;;;23.80;69.40;;;;;;6158618;23;19927;-85
2022/06/19 00:13:41;;;;;;;;;;;23.80;69.40;;;;;;6159859;23;19943;-85
2022/06/19 00:16:08;;;;;;;;;;;23.70;69.00;;;;;;6159756;23;20312;-85
2022/06/19 00:18:38;;;;;;;;;;;23.70;69.00;;;;;;6159537;23;19939;-84
2022/06/19 00:21:05;;;;;;;;;;;23.70;70.00;;;;;;6159750;23;19921;-84
2022/06/19 00:23:32;;;;;;;;;;;23.60;69.90;;;;;;6185291;23;19921;-84
2022/06/19 00:25:59;;;;;;;;;;;23.60;69.80;;;;;;6159625;23;19924;-85
2022/06/19 00:28:25;;;;;;;;;;;23.50;70.20;;;;;;6186421;23;19924;-85
2022/06/19 00:30:52;;;;;;;;;;;23.50;70.30;;;;;;6160167;23;19920;-84
2022/06/19 00:33:19;;;;;;;;;;;23.50;70.20;;;;;;6159957;23;19924;-84
2022/06/19 00:35:46;;;;;;;;;;;23.40;70.10;;;;;;6160027;23;19971;-84
2022/06/19 00:38:13;;;;;;;;;;;23.40;70.20;;;;;;6157834;23;19970;-84
2022/06/19 00:40:40;;;;;;;;;;;23.40;70.40;;;;;;6185761;23;19928;-84
2022/06/19 00:43:07;;;;;;;;;;;23.40;70.70;;;;;;6160042;23;19920;-84
2022/06/19 00:45:34;;;;;;;;;;;23.40;70.80;;;;;;6160311;23;20333;-84
2022/06/19 00:48:01;;;;;;;;;;;23.30;70.90;;;;;;6186228;23;19920;-85
2022/06/19 00:50:30;;;;;;;;;;;23.30;70.50;;;;;;6159779;23;19944;-84
2022/06/19 00:52:58;;;;;;;;;;;23.30;70.20;;;;;;6159963;23;19924;-85
2022/06/19 00:55:27;;;;;;;;;;;23.30;70.10;;;;;;6160092;23;19927;-85
2022/06/19 00:57:58;;;;;;;;;;;23.30;69.80;;;;;;6159848;23;20337;-84
2022/06/19 01:00:29;;;;;;;;;;;23.30;69.30;;;;;;6160137;23;20341;-84
2022/06/19 01:02:57;;;;;;;;;;;23.30;69.40;;;;;;6159748;23;20344;-85
2022/06/19 01:05:25;;;;;;;;;;;23.30;69.60;;;;;;6159910;23;20338;-84
2022/06/19 01:07:54;;;;;;;;;;;23.30;69.80;;;;;;6159895;23;19932;-84
2022/06/19 01:10:21;;;;;;;;;;;23.30;70.00;;;;;;6160615;23;19928;-84
2022/06/19 01:12:47;;;;;;;;;;;23.30;70.80;;;;;;6159598;23;20369;-85
2022/06/19 01:15:19;;;;;;;;;;;23.20;71.30;;;;;;6186532;23;20395;-84
2022/06/19 01:17:51;;;;;;;;;;;23.20;72.00;;;;;;6160232;23;19927;-84
2022/06/19 01:20:18;;;;;;;;;;;23.10;72.10;;;;;;6159107;23;19920;-85
2022/06/19 01:23:00;;;;;;;;;;;23.00;72.20;;;;;;6186027;23;19978;-85
2022/06/19 01:25:31;;;;;;;;;;;22.90;72.40;;;;;;6159885;23;19921;-85
2022/06/19 01:30:48;;;;;;;;;;;22.90;72.50;;;;;;6185593;23;20325;-85
2022/06/19 01:33:19;;;;;;;;;;;22.90;72.30;;;;;;6185734;23;19924;-84
2022/06/19 01:35:47;;;;;;;;;;;22.80;72.20;;;;;;6160381;23;19924;-84
2022/06/19 01:38:15;;;;;;;;;;;22.80;72.00;;;;;;6161853;23;19998;-84
2022/06/19 01:40:44;;;;;;;;;;;22.80;72.00;;;;;;6161779;23;19924;-84
2022/06/19 01:43:11;;;;;;;;;;;22.80;72.50;;;;;;6160839;23;19920;-84
2022/06/19 01:45:41;;;;;;;;;;;22.80;73.10;;;;;;6162159;23;19998;-84
2022/06/19 01:48:08;;;;;;;;;;;22.80;73.20;;;;;;6187755;23;19931;-84
2022/06/19 01:50:35;;;;;;;;;;;22.80;73.30;;;;;;6161758;23;20410;-84
2022/06/19 01:53:10;;;;;;;;;;;22.80;73.20;;;;;;6161394;23;19920;-84
2022/06/19 01:55:37;;;;;;;;;;;22.70;73.30;;;;;;6161235;23;19920;-84
2022/06/19 01:58:05;;;;;;;;;;;22.70;73.30;;;;;;6161594;23;19924;-85
2022/06/19 02:00:34;;;;;;;;;;;22.70;73.20;;;;;;6160103;23;19920;-84
2022/06/19 02:03:11;;;;;;;;;;;22.70;73.10;;;;;;6163684;23;20250;-84
2022/06/19 02:05:39;;;;;;;;;;;22.70;73.50;;;;;;6161716;23;19931;-84
2022/06/19 02:08:06;;;;;;;;;;;22.70;73.40;;;;;;6161273;23;20261;-84
2022/06/19 02:10:34;;;;;;;;;;;22.60;73.30;;;;;;6161481;23;20312;-84
2022/06/19 02:13:01;;;;;;;;;;;22.60;73.40;;;;;;6161536;23;19920;-84
2022/06/19 02:15:30;;;;;;;;;;;22.60;73.60;;;;;;6161279;23;20304;-84
2022/06/19 02:18:00;;;;;;;;;;;22.60;73.80;;;;;;6161704;23;20404;-85
2022/06/19 02:20:27;;;;;;;;;;;22.60;73.70;;;;;;6161225;23;19920;-84
2022/06/19 02:22:54;;;;;;;;;;;22.60;73.90;;;;;;6161372;23;19924;-84
2022/06/19 02:25:20;;;;;;;;;;;22.50;73.90;;;;;;6161577;23;20182;-85
2022/06/19 02:27:48;;;;;;;;;;;22.50;73.90;;;;;;6161568;23;20345;-84
2022/06/19 02:30:15;;;;;;;;;;;22.50;74.00;;;;;;6161151;23;19920;-85
2022/06/19 02:32:45;;;;;;;;;;;22.50;74.00;;;;;;6160958;23;19920;-84
2022/06/19 02:35:14;;;;;;;;;;;22.40;74.00;;;;;;6160953;23;19921;-84
2022/06/19 02:37:43;;;;;;;;;;;22.40;74.00;;;;;;6161483;23;19983;-84
2022/06/19 02:40:28;;;;;;;;;;;22.40;74.00;;;;;;6161447;23;19982;-85
2022/06/19 02:42:55;;;;;;;;;;;22.30;74.00;;;;;;6160395;23;19927;-84
2022/06/19 02:45:23;;;;;;;;;;;22.30;74.10;;;;;;6160815;23;19920;-84
2022/06/19 02:47:51;;;;;;;;;;;22.30;73.90;;;;;;6161258;23;19920;-84
2022/06/19 02:50:20;;;;;;;;;;;22.30;73.90;;;;;;6161298;23;20345;-84
2022/06/19 02:52:48;;;;;;;;;;;22.20;73.90;;;;;;6161212;23;19955;-84
2022/06/19 02:55:14;;;;;;;;;;;22.20;74.00;;;;;;6160411;23;20257;-84
2022/06/19 02:57:41;;;;;;;;;;;22.20;74.10;;;;;;6160933;23;19920;-84
2022/06/19 03:00:12;;;;;;;;;;;22.20;74.00;;;;;;6161344;23;19991;-84
2022/06/19 03:02:40;;;;;;;;;;;22.10;73.90;;;;;;6187165;23;19951;-80
2022/06/19 03:05:11;;;;;;;;;;;22.10;73.80;;;;;;6160579;23;19951;-80
2022/06/19 03:07:38;;;;;;;;;;;22.10;73.70;;;;;;6187156;23;19924;-80
2022/06/19 03:10:05;;;;;;;;;;;22.10;73.70;;;;;;6160798;23;19920;-80
2022/06/19 03:12:32;;;;;;;;;;;22.10;73.30;;;;;;6160884;23;19924;-80
2022/06/19 03:14:59;;;;;;;;;;;22.10;73.20;;;;;;6161085;23;19921;-80
2022/06/19 03:17:25;;;;;;;;;;;22.10;73.00;;;;;;6160323;23;19987;-80
2022/06/19 03:19:54;;;;;;;;;;;22.10;72.60;;;;;;6161297;23;19995;-81
2022/06/19 03:22:21;;;;;;;;;;;22.10;72.60;;;;;;6161141;23;20246;-80
2022/06/19 03:24:48;;;;;;;;;;;22.00;72.40;;;;;;6160786;23;19920;-80
2022/06/19 03:27:15;;;;;;;;;;;22.00;72.20;;;;;;6160408;23;19920;-80
2022/06/19 03:29:43;;;;;;;;;;;22.00;72.00;;;;;;6160711;23;19928;-80
2022/06/19 03:32:10;;;;;;;;;;;22.00;71.90;;;;;;6186886;23;19920;-80
2022/06/19 03:34:38;;;;;;;;;;;22.00;71.90;;;;;;6161171;23;19924;-80
2022/06/19 03:37:04;;;;;;;;;;;22.00;71.50;;;;;;6161397;23;20261;-80
2022/06/19 03:39:32;;;;;;;;;;;22.00;70.70;;;;;;6161491;23;19924;-80
2022/06/19 03:41:58;;;;;;;;;;;22.00;70.10;;;;;;6161536;23;19920;-80
2022/06/19 03:44:25;;;;;;;;;;;22.10;69.40;;;;;;6160387;23;20345;-80
2022/06/19 03:46:52;;;;;;;;;;;22.10;68.90;;;;;;6161854;23;19924;-80
2022/06/19 03:49:19;;;;;;;;;;;22.20;68.50;;;;;;6161449;23;20234;-80
2022/06/19 03:51:46;;;;;;;;;;;22.20;68.00;;;;;;6161064;23;19975;-80
2022/06/19 03:54:13;;;;;;;;;;;22.30;67.70;;;;;;6161714;23;19928;-80
2022/06/19 03:56:40;;;;;;;;;;;22.30;67.50;;;;;;6187602;23;19929;-79
2022/06/19 03:59:11;;;;;;;;;;;22.30;67.30;;;;;;6160256;23;19924;-79
2022/06/19 04:01:40;;;;;;;;;;;22.30;66.90;;;;;;6161385;23;20321;-80
2022/06/19 04:04:07;;;;;;;;;;;22.40;66.80;;;;;;6187552;23;19920;-80
2022/06/19 04:06:36;;;;;;;;;;;22.40;66.70;;;;;;6161964;23;19920;-80
2022/06/19 04:09:04;;;;;;;;;;;22.40;66.70;;;;;;6186884;23;20676;-80
2022/06/19 04:11:31;;;;;;;;;;;22.40;66.60;;;;;;6160658;23;19970;-81
2022/06/19 04:13:58;;;;;;;;;;;22.40;66.50;;;;;;6160706;23;19920;-80
2022/06/19 04:16:26;;;;;;;;;;;22.40;66.30;;;;;;6161199;23;20256;-80
2022/06/19 04:18:54;;;;;;;;;;;22.50;66.20;;;;;;6187326;23;19991;-80
2022/06/19 04:21:24;;;;;;;;;;;22.50;66.00;;;;;;6160978;23;19920;-81
2022/06/19 04:23:54;;;;;;;;;;;22.50;65.80;;;;;;6160778;23;19983;-79
2022/06/19 04:26:21;;;;;;;;;;;22.60;65.30;;;;;;6187047;23;19921;-80
2022/06/19 04:28:48;;;;;;;;;;;22.70;65.50;;;;;;6186123;23;19932;-80
2022/06/19 04:31:16;;;;;;;;;;;22.70;65.40;;;;;;6161195;23;19975;-80
2022/06/19 04:33:43;;;;;;;;;;;22.70;65.30;;;;;;6186177;23;19936;-80
2022/06/19 04:36:16;;;;;;;;;;;22.80;65.20;;;;;;6186936;23;20329;-80
2022/06/19 04:38:43;;;;;;;;;;;22.80;64.80;;;;;;6160164;23;19925;-80
2022/06/19 04:41:15;;;;;;;;;;;22.90;64.80;;;;;;6160348;23;19920;-80
2022/06/19 04:43:41;;;;;;;;;;;23.00;64.50;;;;;;6186591;23;19932;-80
2022/06/19 04:46:09;;;;;;;;;;;23.00;64.40;;;;;;6160586;23;19924;-80
2022/06/19 04:48:36;;;;;;;;;;;23.00;64.40;;;;;;6161172;23;19991;-80
2022/06/19 04:51:03;;;;;;;;;;;23.10;65.00;;;;;;6161269;23;19975;-81
2022/06/19 04:53:32;;;;;;;;;;;23.10;66.60;;;;;;6159608;23;19943;-81
2022/06/19 04:55:59;;;;;;;;;;;23.10;67.00;;;;;;6160309;23;19920;-80
2022/06/19 04:58:27;;;;;;;;;;;23.20;68.20;;;;;;6160472;23;19971;-81
2022/06/19 05:00:54;;;;;;;;;;;23.20;68.10;;;;;;6161572;23;19920;-80
2022/06/19 05:03:21;;;;;;;;;;;23.30;67.60;;;;;;6160685;23;19921;-81
2022/06/19 05:05:48;;;;;;;;;;;23.30;67.40;;;;;;6186804;23;19924;-80
2022/06/19 05:08:15;;;;;;;;;;;23.30;67.30;;;;;;6160850;23;20356;-80
2022/06/19 05:10:42;;;;;;;;;;;23.40;67.20;;;;;;6160235;23;20010;-80
2022/06/19 05:13:14;;;;;;;;;;;23.40;67.60;;;;;;6160582;23;19924;-80
2022/06/19 05:15:41;;;;;;;;;;;23.50;67.90;;;;;;6159719;23;20296;-80
2022/06/19 05:18:07;;;;;;;;;;;23.50;68.60;;;;;;6160831;23;19998;-80
2022/06/19 05:20:35;;;;;;;;;;;23.50;68.50;;;;;;6187011;23;19975;-80
2022/06/19 05:23:01;;;;;;;;;;;23.50;68.60;;;;;;6160747;23;19920;-80
2022/06/19 05:25:28;;;;;;;;;;;23.50;68.30;;;;;;6159814;23;19928;-80
2022/06/19 05:27:55;;;;;;;;;;;23.40;67.90;;;;;;6159977;23;19921;-80
2022/06/19 05:30:22;;;;;;;;;;;23.40;68.50;;;;;;6160253;23;19974;-80
2022/06/19 05:32:48;;;;;;;;;;;23.50;68.40;;;;;;6186321;23;19955;-80
2022/06/19 05:35:15;;;;;;;;;;;23.60;68.50;;;;;;6161088;23;19921;-80
2022/06/19 05:37:42;;;;;;;;;;;23.60;68.40;;;;;;6159800;23;19998;-80
2022/06/19 05:40:09;;;;;;;;;;;23.70;68.50;;;;;;6161134;23;20395;-80
2022/06/19 05:42:36;;;;;;;;;;;23.70;68.20;;;;;;6160371;23;19983;-80
2022/06/19 05:45:03;;;;;;;;;;;23.80;68.30;;;;;;6159782;23;19958;-80
2022/06/19 05:47:30;;;;;;;;;;;23.80;68.10;;;;;;6159419;23;19920;-80
2022/06/19 05:49:57;;;;;;;;;;;23.90;68.70;;;;;;6161727;23;19970;-81
2022/06/19 05:52:24;;;;;;;;;;;23.80;69.20;;;;;;6160540;23;20403;-80
2022/06/19 05:54:52;;;;;;;;;;;23.90;69.10;;;;;;6159929;23;19928;-80
2022/06/19 05:57:19;;;;;;;;;;;23.90;69.10;;;;;;6186950;23;19978;-80
2022/06/19 05:59:46;;;;;;;;;;;23.90;68.60;;;;;;6160159;23;19921;-80
2022/06/19 06:02:14;;;;;;;;;;;24.00;68.10;;;;;;6159449;23;19982;-80
2022/06/19 06:04:41;;;;;;;;;;;24.00;67.70;;;;;;6159742;23;19921;-80
2022/06/19 06:07:08;;;;;;;;;;;24.10;67.50;;;;;;6186289;23;19986;-81
2022/06/19 06:09:35;;;;;;;;;;;24.10;67.30;;;;;;6160231;23;19974;-80
2022/06/19 06:12:03;;;;;;;;;;;24.20;67.30;;;;;;6160669;23;19958;-80
2022/06/19 06:14:30;;;;;;;;;;;24.30;67.60;;;;;;6159969;23;19921;-81
2022/06/19 06:16:56;;;;;;;;;;;24.40;67.10;;;;;;6185571;23;19920;-81
2022/06/19 06:19:23;;;;;;;;;;;24.50;66.30;;;;;;6185711;23;19924;-81
2022/06/19 06:21:50;;;;;;;;;;;24.60;66.40;;;;;;6160345;23;19944;-80
2022/06/19 06:24:17;;;;;;;;;;;24.70;66.30;;;;;;6161852;23;19920;-80
2022/06/19 06:26:44;;;;;;;;;;;24.80;65.90;;;;;;6186310;23;19923;-81
2022/06/19 06:29:10;;;;;;;;;;;24.90;64.80;;;;;;6159523;23;19971;-80
2022/06/19 06:31:37;;;;;;;;;;;25.00;64.00;;;;;;6160726;23;20292;-82
2022/06/19 06:34:04;;;;;;;;;;;25.00;63.60;;;;;;6159955;23;20233;-81
2022/06/19 06:36:31;;;;;;;;;;;25.10;63.50;;;;;;6161600;23;19920;-80
2022/06/19 06:38:58;;;;;;;;;;;25.10;63.40;;;;;;6160201;23;19975;-81
2022/06/19 06:41:25;;;;;;;;;;;25.10;63.40;;;;;;6160788;23;19924;-80
2022/06/19 06:43:51;;;;;;;;;;;25.20;63.00;;;;;;6159812;23;19924;-82
2022/06/19 06:46:20;;;;;;;;;;;25.20;62.60;;;;;;6186553;23;20384;-80
2022/06/19 06:48:48;;;;;;;;;;;25.20;62.80;;;;;;6161508;23;19920;-81
2022/06/19 06:51:16;;;;;;;;;;;25.30;63.30;;;;;;6160802;23;19967;-81
2022/06/19 06:53:43;;;;;;;;;;;25.30;63.30;;;;;;6160943;23;20416;-80
2022/06/19 06:56:10;;;;;;;;;;;25.40;63.00;;;;;;6161934;23;19920;-80
2022/06/19 06:58:38;;;;;;;;;;;25.40;63.10;;;;;;6161319;23;19920;-81
2022/06/19 07:01:09;;;;;;;;;;;25.40;62.80;;;;;;6162043;23;19996;-81
2022/06/19 07:03:36;;;;;;;;;;;25.50;62.50;;;;;;6161545;23;19920;-81
2022/06/19 07:06:03;;;;;;;;;;;25.50;62.00;;;;;;6162062;23;19963;-81
2022/06/19 07:08:30;;;;;;;;;;;25.60;61.60;;;;;;6161389;23;20297;-80
2022/06/19 07:10:57;;;;;;;;;;;25.60;61.20;;;;;;6161840;23;20344;-81
2022/06/19 07:13:24;;;;;;;;;;;25.70;59.90;;;;;;6160970;23;19955;-81
2022/06/19 07:15:51;;;;;;;;;;;25.70;59.00;;;;;;6161323;23;20265;-80
2022/06/19 07:18:18;;;;;;;;;;;25.70;58.10;;;;;;6160986;23;19928;-81
2022/06/19 07:20:45;;;;;;;;;;;25.80;57.50;;;;;;6187919;23;19920;-81
2022/06/19 07:23:12;;;;;;;;;;;25.90;57.60;;;;;;6187954;23;19943;-80
2022/06/19 07:25:39;;;;;;;;;;;26.10;57.20;;;;;;6187563;23;20296;-81
2022/06/19 07:28:06;;;;;;;;;;;26.20;56.60;;;;;;6185013;23;20392;-80
2022/06/19 07:30:34;;;;;;;;;;;26.40;56.30;;;;;;6159114;23;19978;-81
2022/06/19 07:33:01;;;;;;;;;;;26.50;55.50;;;;;;6158492;23;19920;-81
2022/06/19 07:35:28;;;;;;;;;;;26.70;55.20;;;;;;6158775;23;19970;-81
2022/06/19 07:37:55;;;;;;;;;;;26.80;54.00;;;;;;6158220;23;19966;-81
2022/06/19 07:40:22;;;;;;;;;;;26.90;53.60;;;;;;6159609;23;19920;-80
2022/06/19 07:42:49;;;;;;;;;;;27.10;53.70;;;;;;6159163;23;19920;-81
2022/06/19 07:45:16;;;;;;;;;;;27.20;53.50;;;;;;6157035;23;19920;-81
2022/06/19 07:50:28;;;;;;;;;;;27.40;52.00;;;;;;6185363;23;19931;-81
2022/06/19 07:52:55;;;;;;;;;;;27.60;51.00;;;;;;6159535;23;19927;-81
2022/06/19 07:55:23;;;;;;;;;;;27.70;50.30;;;;;;6158480;23;19928;-80
2022/06/19 07:57:50;;;;;;;;;;;27.70;50.30;;;;;;6185782;23;19920;-81
2022/06/19 08:00:19;;;;;;;;;;;27.80;50.10;;;;;;6160355;23;20296;-80
2022/06/19 08:02:48;;;;;;;;;;;27.90;50.30;;;;;;6183646;23;19955;-80
2022/06/19 08:05:16;;;;;;;;;;;28.00;50.30;;;;;;6159863;23;19920;-81
2022/06/19 08:07:43;;;;;;;;;;;28.10;50.30;;;;;;6159520;23;19925;-81
2022/06/19 08:10:13;;;;;;;;;;;28.30;49.20;;;;;;6158984;23;19970;-81
2022/06/19 08:12:40;;;;;;;;;;;28.40;48.40;;;;;;6159052;23;19920;-80
2022/06/19 08:15:07;;;;;;;;;;;28.50;47.90;;;;;;6184005;23;20246;-80
2022/06/19 08:17:34;;;;;;;;;;;28.50;48.20;;;;;;6159479;23;20349;-80
2022/06/19 08:20:01;;;;;;;;;;;28.60;48.30;;;;;;6159779;23;19983;-80
2022/06/19 08:22:28;;;;;;;;;;;28.60;47.40;;;;;;6159607;23;19921;-80
2022/06/19 08:24:55;;;;;;;;;;;28.70;47.80;;;;;;6185326;23;19943;-80
2022/06/19 08:27:22;;;;;;;;;;;28.80;47.20;;;;;;6159468;23;20396;-80
2022/06/19 08:29:49;;;;;;;;;;;28.80;47.00;;;;;;6185438;23;19948;-81
2022/06/19 08:32:16;;;;;;;;;;;29.00;48.00;;;;;;6184113;23;19920;-81
2022/06/19 08:34:43;;;;;;;;;;;29.00;47.80;;;;;;6184496;23;20234;-81
2022/06/19 08:37:11;;;;;;;;;;;29.10;47.60;;;;;;6159038;23;19932;-81
2022/06/19 08:39:38;;;;;;;;;;;29.10;47.10;;;;;;6159752;23;19944;-81
2022/06/19 08:42:15;;;;;;;;;;;29.00;46.80;;;;;;6160013;23;19921;-80
2022/06/19 08:44:45;;;;;;;;;;;29.00;46.90;;;;;;6183809;23;20341;-81
2022/06/19 08:47:17;;;;;;;;;;;28.90;46.60;;;;;;6157379;23;19924;-80
2022/06/19 08:49:51;;;;;;;;;;;28.80;47.80;;;;;;6159057;23;20023;-80
2022/06/19 08:52:36;;;;;;;;;;;28.90;48.80;;;;;;6159660;23;19974;-80
2022/06/19 08:55:18;;;;;;;;;;;29.00;47.80;;;;;;6185571;23;20249;-81
2022/06/19 08:57:57;;;;;;;;;;;29.20;48.00;;;;;;6159082;23;19927;-80
2022/06/19 09:00:48;;;;;;;;;;;29.40;46.90;;;;;;6159422;23;19924;-81
2022/06/19 09:03:14;;;;;;;;;;;29.60;46.60;;;;;;6185623;23;19944;-80
2022/06/19 09:05:47;;;;;;;;;;;29.80;45.40;;;;;;6159026;23;19920;-80
2022/06/19 09:08:26;;;;;;;;;;;29.80;45.30;;;;;;6159012;23;19924;-80
2022/06/19 09:11:00;;;;;;;;;;;29.80;45.90;;;;;;6185864;23;19924;-80
2022/06/19 09:13:39;;;;;;;;;;;29.80;46.10;;;;;;6159813;23;19928;-79
2022/06/19 09:16:26;;;;;;;;;;;29.90;46.30;;;;;;6158765;23;20355;-80
2022/06/19 09:19:01;;;;;;;;;;;30.10;44.40;;;;;;6159290;23;19928;-80
2022/06/19 09:21:35;;;;;;;;;;;30.20;43.70;;;;;;6159339;23;19924;-81
2022/06/19 09:24:05;;;;;;;;;;;30.30;43.60;;;;;;6184704;23;19974;-80
2022/06/19 09:26:34;;;;;;;;;;;30.30;42.70;;;;;;6158194;23;19927;-81
2022/06/19 09:29:11;;;;;;;;;;;30.30;43.60;;;;;;6158822;23;19928;-80
2022/06/19 09:31:55;;;;;;;;;;;30.30;42.60;;;;;;6157709;23;19920;-80
2022/06/19 09:34:26;;;;;;;;;;;30.30;42.50;;;;;;6158558;23;19987;-81
2022/06/19 09:36:59;;;;;;;;;;;30.30;42.20;;;;;;6158949;23;20066;-81
2022/06/19 09:39:37;;;;;;;;;;;30.40;42.40;;;;;;6158749;23;19943;-80
2022/06/19 09:42:04;;;;;;;;;;;30.60;42.80;;;;;;6158954;23;19931;-81
2022/06/19 09:44:30;;;;;;;;;;;30.70;41.60;;;;;;6153394;23;19921;-81
2022/06/19 09:47:04;;;;;;;;;;;30.90;41.70;;;;;;6151659;23;19932;-80
2022/06/19 09:49:37;;;;;;;;;;;31.00;41.20;;;;;;6153456;23;20257;-81
2022/06/19 09:52:17;;;;;;;;;;;31.10;40.60;;;;;;6153527;23;19975;-81
2022/06/19 09:55:03;;;;;;;;;;;31.20;39.90;;;;;;6153538;23;19975;-81
2022/06/19 09:57:33;;;;;;;;;;;31.20;41.10;;;;;;6154518;23;19920;-80
2022/06/19 10:00:13;;;;;;;;;;;31.20;41.10;;;;;;6154869;23;19920;-80
2022/06/19 10:03:10;;;;;;;;;;;31.20;40.50;;;;;;6155476;23;19928;-80
2022/06/19 10:05:43;;;;;;;;;;;31.30;40.30;;;;;;6155775;23;19920;-81
2022/06/19 10:08:30;;;;;;;;;;;31.30;39.70;;;;;;6155487;23;19921;-80
2022/06/19 10:10:57;;;;;;;;;;;31.40;39.80;;;;;;6140487;23;19983;-81
2022/06/19 10:13:29;;;;;;;;;;;31.40;39.40;;;;;;6156859;23;20341;-81
2022/06/19 10:15:58;;;;;;;;;;;31.50;39.70;;;;;;6155227;23;19921;-81
2022/06/19 10:18:37;;;;;;;;;;;31.60;38.90;;;;;;6156144;23;19925;-81
2022/06/19 10:22:13;;;;;;;;;;;31.70;38.80;;;;;;6155611;23;19928;-81
2022/06/19 10:24:07;;;;;;;;;;;31.80;39.30;;;;;;6157072;23;20326;-81
2022/06/19 10:26:43;;;;;;;;;;;32.00;39.40;;;;;;6155384;23;20401;-81
2022/06/19 10:29:22;;;;;;;;;;;32.10;38.50;;;;;;6156084;23;19924;-80
2022/06/19 10:32:04;;;;;;;;;;;32.20;38.90;;;;;;6155377;23;20357;-80
2022/06/19 10:34:48;;;;;;;;;;;32.30;38.50;;;;;;6155775;23;20337;-81
2022/06/19 10:37:31;;;;;;;;;;;32.30;37.50;;;;;;6155719;23;19928;-80
2022/06/19 10:40:16;;;;;;;;;;;32.30;37.70;;;;;;6155712;23;19921;-80
2022/06/19 10:43:01;;;;;;;;;;;32.30;38.20;;;;;;6155583;23;19920;-80
2022/06/19 10:45:35;;;;;;;;;;;32.30;38.20;;;;;;6160394;23;19985;-80
2022/06/19 10:48:05;;;;;;;;;;;32.30;38.20;;;;;;6158233;23;19924;-80
2022/06/19 10:50:38;;;;;;;;;;;32.40;37.50;;;;;;6159853;23;20201;-80
2022/06/19 10:53:07;;;;;;;;;;;32.40;37.40;;;;;;6159219;23;19983;-81
2022/06/19 10:55:51;;;;;;;;;;;32.50;37.40;;;;;;6160180;23;19920;-80
2022/06/19 10:58:23;;;;;;;;;;;32.50;37.40;;;;;;6159923;23;19924;-81
2022/06/19 11:00:51;;;;;;;;;;;32.60;37.30;;;;;;6160012;23;19972;-81
2022/06/19 11:06:36;;;;;;;;;;;32.60;37.40;;;;;;6186253;23;19951;-80
2022/06/19 11:09:06;;;;;;;;;;;32.80;36.50;;;;;;6160318;23;19975;-81
2022/06/19 11:11:34;;;;;;;;;;;32.80;37.10;;;;;;6159492;23;20325;-81
2022/06/19 11:14:09;;;;;;;;;;;32.90;36.70;;;;;;6160349;23;20337;-80
2022/06/19 11:16:56;;;;;;;;;;;33.00;36.80;;;;;;6159838;23;19920;-80
2022/06/19 11:19:38;;;;;;;;;;;33.20;37.00;;;;;;6186339;23;20341;-80
2022/06/19 11:22:30;;;;;;;;;;;33.30;36.10;;;;;;6160169;23;19926;-80
2022/06/19 11:25:13;;;;;;;;;;;33.40;35.80;;;;;;6159711;23;19967;-80
2022/06/19 11:27:48;;;;;;;;;;;33.40;36.20;;;;;;6186033;23;19920;-80
2022/06/19 11:30:15;;;;;;;;;;;33.50;35.60;;;;;;6159807;23;19924;-81
2022/06/19 11:32:48;;;;;;;;;;;33.50;35.60;;;;;;6160486;23;19920;-80
2022/06/19 11:35:15;;;;;;;;;;;33.50;35.50;;;;;;6160293;23;19946;-80
2022/06/19 11:37:54;;;;;;;;;;;33.60;34.90;;;;;;6159343;23;19924;-80
2022/06/19 11:40:32;;;;;;;;;;;33.60;35.20;;;;;;6159488;23;19944;-80
2022/06/19 11:43:00;;;;;;;;;;;33.70;34.30;;;;;;6159412;23;19924;-80
2022/06/19 11:45:33;;;;;;;;;;;33.80;35.00;;;;;;6159825;23;19951;-80
2022/06/19 11:48:02;;;;;;;;;;;33.80;35.50;;;;;;6157717;23;20321;-80
2022/06/19 11:50:32;;;;;;;;;;;33.90;34.90;;;;;;6159277;23;19920;-81
2022/06/19 11:53:05;;;;;;;;;;;33.90;34.30;;;;;;6159566;23;19920;-81
2022/06/19 11:55:37;;;;;;;;;;;34.00;34.20;;;;;;6159836;23;19940;-81
2022/06/19 11:58:16;;;;;;;;;;;34.20;33.30;;;;;;6160048;23;19928;-80
2022/06/19 12:00:43;;;;;;;;;;;34.40;34.30;;;;;;6159388;23;19920;-80
2022/06/19 12:03:25;;;;;;;;;;;34.40;34.20;;;;;;6185482;23;20358;-81
2022/06/19 12:05:55;;;;;;;;;;;34.10;32.10;;;;;;6159236;23;19924;-81
2022/06/19 12:08:23;;;;;;;;;;;34.00;33.30;;;;;;6159711;23;19920;-80
2022/06/19 12:10:54;;;;;;;;;;;34.10;33.50;;;;;;6184958;23;20337;-80
2022/06/19 12:13:23;;;;;;;;;;;34.10;33.00;;;;;;6159686;23;19920;-80
2022/06/19 12:16:13;;;;;;;;;;;34.00;33.20;;;;;;6159372;23;19959;-81
2022/06/19 12:18:40;;;;;;;;;;;34.00;33.10;;;;;;6141635;23;19927;-80
2022/06/19 12:21:16;;;;;;;;;;;34.00;32.60;;;;;;6159333;23;19924;-80
2022/06/19 12:23:48;;;;;;;;;;;34.10;33.10;;;;;;6160256;23;19975;-81
2022/06/19 12:26:19;;;;;;;;;;;34.10;33.40;;;;;;6160023;23;20370;-80
2022/06/19 12:28:55;;;;;;;;;;;34.20;34.10;;;;;;6186167;23;19928;-81
2022/06/19 12:31:25;;;;;;;;;;;34.20;32.50;;;;;;6158790;23;19963;-80
2022/06/19 12:34:11;;;;;;;;;;;34.10;33.50;;;;;;6159630;23;20307;-80
2022/06/19 12:36:38;;;;;;;;;;;34.20;33.70;;;;;;6160144;23;19940;-80
2022/06/19 12:39:17;;;;;;;;;;;34.20;33.50;;;;;;6159893;23;19921;-80
2022/06/19 12:41:43;;;;;;;;;;;34.40;34.10;;;;;;6158865;23;19924;-80
2022/06/19 12:44:21;;;;;;;;;;;34.70;33.00;;;;;;6159235;23;19943;-81
2022/06/19 12:46:54;;;;;;;;;;;35.00;33.00;;;;;;6158860;23;19924;-80
2022/06/19 12:49:24;;;;;;;;;;;35.20;31.70;;;;;;6157696;23;20000;-81
2022/06/19 12:51:52;;;;;;;;;;;35.30;32.20;;;;;;6159156;23;19920;-78
2022/06/19 12:54:28;;;;;;;;;;;35.30;31.40;;;;;;6159450;23;19921;-78
2022/06/19 12:57:14;;;;;;;;;;;35.30;31.70;;;;;;6159503;23;19967;-79
2022/06/19 13:00:01;;;;;;;;;;;35.20;32.20;;;;;;6159264;23;19924;-80
2022/06/19 13:02:47;;;;;;;;;;;35.10;32.30;;;;;;6159589;23;19928;-80
2022/06/19 13:05:29;;;;;;;;;;;35.00;31.70;;;;;;6159483;23;19924;-80
2022/06/19 13:07:55;;;;;;;;;;;34.70;30.50;;;;;;6159250;23;19974;-81
2022/06/19 13:10:25;;;;;;;;;;;34.70;32.00;;;;;;6159354;23;20005;-80
2022/06/19 13:13:03;;;;;;;;;;;34.90;30.70;;;;;;6159334;23;19927;-80
2022/06/19 13:15:53;;;;;;;;;;;34.90;31.50;;;;;;6159041;23;19920;-80
2022/06/19 13:18:42;;;;;;;;;;;35.00;31.10;;;;;;6183782;23;19924;-80
2022/06/19 13:21:24;;;;;;;;;;;34.80;31.40;;;;;;6133912;23;19920;-80
2022/06/19 13:24:09;;;;;;;;;;;34.70;31.10;;;;;;6157467;23;19971;-80
2022/06/19 13:29:43;;;;;;;;;;;34.70;31.20;;;;;;6183709;23;19927;-79
2022/06/19 13:32:21;;;;;;;;;;;34.60;32.20;;;;;;6157859;23;19991;-80
2022/06/19 13:34:57;;;;;;;;;;;34.60;32.60;;;;;;6158618;23;19924;-80
2022/06/19 13:37:35;;;;;;;;;;;34.70;31.80;;;;;;6158773;23;20337;-80
2022/06/19 13:40:08;;;;;;;;;;;34.80;31.90;;;;;;6158181;23;20265;-80
2022/06/19 13:42:47;;;;;;;;;;;34.80;32.00;;;;;;6157448;23;20317;-81
2022/06/19 13:45:38;;;;;;;;;;;34.90;32.50;;;;;;6158930;23;19924;-80
2022/06/19 13:48:18;;;;;;;;;;;34.90;31.40;;;;;;6158780;23;19948;-80
2022/06/19 13:50:51;;;;;;;;;;;34.70;30.40;;;;;;6158412;23;20399;-80
2022/06/19 13:53:22;;;;;;;;;;;34.70;30.70;;;;;;6158589;23;19924;-80
2022/06/19 13:55:58;;;;;;;;;;;34.50;30.90;;;;;;6157896;23;19924;-80
2022/06/19 13:58:43;;;;;;;;;;;34.60;31.80;;;;;;6158637;23;19975;-80
2022/06/19 14:01:25;;;;;;;;;;;34.60;31.30;;;;;;6158262;23;20256;-80
2022/06/19 14:07:07;;;;;;;;;;;34.90;31.00;;;;;;6184382;23;19970;-80
2022/06/19 14:09:53;;;;;;;;;;;35.30;32.10;;;;;;6157753;23;19920;-80
2022/06/19 14:12:23;;;;;;;;;;;35.40;31.30;;;;;;6158429;23;19952;-80
2022/06/19 14:14:53;;;;;;;;;;;35.70;31.30;;;;;;6184017;23;19920;-80
2022/06/19 14:17:34;;;;;;;;;;;35.80;30.80;;;;;;6158557;23;19924;-80
2022/06/19 14:20:20;;;;;;;;;;;35.80;30.50;;;;;;6158743;23;19920;-80
2022/06/19 14:22:59;;;;;;;;;;;35.80;30.70;;;;;;6158571;23;19924;-80
2022/06/19 14:25:30;;;;;;;;;;;35.70;29.40;;;;;;6184909;23;19995;-80
2022/06/19 14:28:07;;;;;;;;;;;35.60;30.00;;;;;;6158762;23;19944;-81
2022/06/19 14:30:43;;;;;;;;;;;35.60;30.00;;;;;;6159547;23;20345;-80
2022/06/19 14:33:30;;;;;;;;;;;35.80;30.00;;;;;;6184777;23;19920;-80
2022/06/19 14:36:04;;;;;;;;;;;35.70;29.40;;;;;;6158706;23;20242;-80
2022/06/19 14:38:33;;;;;;;;;;;35.70;30.10;;;;;;6158620;23;19920;-80
2022/06/19 14:41:08;;;;;;;;;;;35.80;29.80;;;;;;6158041;23;19920;-80
2022/06/19 14:43:38;;;;;;;;;;;36.00;29.70;;;;;;6158100;23;19947;-80
2022/06/19 14:46:19;;;;;;;;;;;36.10;29.50;;;;;;6159948;23;19995;-80
2022/06/19 14:48:49;;;;;;;;;;;36.10;30.00;;;;;;6186201;23;19964;-80
2022/06/19 14:51:49;;;;;;;;;;;36.30;30.00;;;;;;6159824;23;19925;-80
2022/06/19 14:54:15;;;;;;;;;;;36.30;30.00;;;;;;6080504;23;19921;-80